Decoded Metar for ETSI (INGOLSTADT in GERMANY) (IATA:N/A) | Meteo·Mobile Aviation Weather
aviador You're here:

ETSI Decoded Metar

INGOLSTADT in GERMANY
Report Time2018-11-19 03:20:00
UTC Time2018-11-19 03:47:29
Flight Rules vfr VFR
Wind040° at 06 kt
W.Decomp.*RWY 07: 5.1 kt HW 3.2 kt LCW
W.Rank040° ranks 19
Current wind is above 040° avg. (3.9)
Visibility8000 m
Phenomena:N/A
Clouds:N/A
Expected CloudBase > 3,200 ft AGL from Temp-Dew spread
CeilingNone
Temp00°C (ISA -13)
Dew Point-8°C (55% RH)
AAT-5.1°C
QNH1015 hPa
Density Alt-338 ft
Elevation1,214 ft
Report Wrong Elevation
Raw Report
METAR ETSI 190320Z AUTO 04006KT 8000 // ////// 00/M08 Q1015 ///=

Extra information for ETSI:More info

Metar Taf Metar & Taf Last 4 Metars F.Rules Stats Wind Profile Meteogram Temp Stats Airport Information Weather charts Add Link Nearby VenuesMetar ALERT Operation Metar Decoded Social comments